Time;durP1;ratioP1;P1;durP2;ratioP2;P2;SDS_P1;SDS_P2;PMS_P1;PMS_P2;Temp;Humidity;BMP_temperature;BMP_pressure;BME280_temperature;BME280_humidity;BME280_pressure;Samples;Min_cycle;Max_cycle;Signal;HPM_P1;HPM_P2
2023/08/14 00:01:26;;;;;;;6.50;4.30;;;;;;;23.21;44.30;101092.29;108260;1278;24362;-58
2023/08/14 00:03:52;;;;;;;7.20;5.20;;;;;;;23.19;44.27;101092.73;108249;1276;21983;-74
2023/08/14 00:06:18;;;;;;;8.30;4.60;;;;;;;23.17;44.30;101091.64;108248;1283;22034;-74
2023/08/14 00:08:43;;;;;;;6.60;4.30;;;;;;;23.12;44.54;101094.37;108263;1276;23660;-74
2023/08/14 00:11:09;;;;;;;7.60;4.20;;;;;;;23.10;44.52;101092.36;108269;1276;22179;-74
2023/08/14 00:13:51;;;;;;;7.00;3.90;;;;;;;23.10;44.57;101094.67;108290;1283;23623;-58
2023/08/14 00:16:16;;;;;;;6.00;3.60;;;;;;;23.14;44.67;101096.10;108294;1284;21986;-73
2023/08/14 00:18:42;;;;;;;6.50;4.60;;;;;;;23.13;44.67;101096.14;108297;1283;21984;-74
2023/08/14 00:21:08;;;;;;;6.30;3.90;;;;;;;23.08;44.40;101095.17;108223;1280;21991;-58
2023/08/14 00:23:33;;;;;;;12.10;4.20;;;;;;;22.98;44.45;101097.44;108249;1282;21991;-58
2023/08/14 00:25:59;;;;;;;6.20;4.60;;;;;;;22.89;44.59;101099.34;108278;1283;21992;-73
2023/08/14 00:28:24;;;;;;;7.10;4.10;;;;;;;22.83;44.82;101097.86;108265;1276;23688;-57
2023/08/14 00:30:50;;;;;;;7.20;3.50;;;;;;;22.78;44.68;101096.54;108249;1277;21999;-58
2023/08/14 00:33:15;;;;;;;7.60;4.30;;;;;;;22.69;44.78;101096.47;108333;1283;22041;-72
2023/08/14 00:35:41;;;;;;;9.20;4.40;;;;;;;22.61;45.06;101093.84;108271;1276;21997;-57
2023/08/14 00:38:06;;;;;;;8.90;4.60;;;;;;;22.56;45.17;101094.61;108299;1276;21999;-58
2023/08/14 00:40:32;;;;;;;9.60;4.40;;;;;;;22.52;45.20;101096.27;108285;1280;21989;-73
2023/08/14 00:42:58;;;;;;;7.70;4.50;;;;;;;22.45;45.17;101096.41;108269;1280;21984;-58
2023/08/14 00:45:23;;;;;;;5.00;3.80;;;;;;;22.41;45.26;101098.22;108211;1283;22439;-58
2023/08/14 00:47:49;;;;;;;6.00;4.50;;;;;;;22.39;45.24;101099.39;108234;1283;21994;-57
2023/08/14 00:50:15;;;;;;;7.30;3.70;;;;;;;22.40;45.23;101097.73;108267;1279;22027;-58
2023/08/14 00:52:44;;;;;;;5.10;3.20;;;;;;;22.40;45.10;101096.66;108270;1279;21996;-73
2023/08/14 00:55:18;;;;;;;5.90;3.90;;;;;;;22.38;45.41;101102.48;108260;1279;22054;-72
2023/08/14 00:57:44;;;;;;;6.40;4.00;;;;;;;22.37;45.31;101096.77;108279;1279;22167;-58
2023/08/14 01:00:11;;;;;;;6.20;3.80;;;;;;;22.39;45.51;101097.23;108239;1283;21982;-72
2023/08/14 01:02:37;;;;;;;6.70;4.30;;;;;;;22.39;45.48;101098.11;108126;1273;22452;-72
2023/08/14 01:05:03;;;;;;;7.20;4.20;;;;;;;22.42;45.45;101099.59;108254;1279;21989;-73
2023/08/14 01:07:31;;;;;;;5.90;4.40;;;;;;;22.47;45.59;101098.48;108248;1280;22191;-72
2023/08/14 01:09:57;;;;;;;7.70;3.90;;;;;;;22.52;45.40;101098.74;108255;1283;21988;-72
2023/08/14 01:12:29;;;;;;;6.40;4.30;;;;;;;22.53;45.41;101104.97;107972;1277;160148;-73
2023/08/14 01:15:01;;;;;;;9.10;4.40;;;;;;;22.53;45.67;101102.48;108288;1282;22452;-57
2023/08/14 01:17:27;;;;;;;6.00;4.40;;;;;;;22.60;45.38;101102.81;108252;1282;21986;-58
2023/08/14 01:19:52;;;;;;;6.60;4.10;;;;;;;22.64;45.47;101099.61;108115;1283;21999;-72
2023/08/14 01:22:46;;;;;;;8.30;5.20;;;;;;;22.61;45.51;101101.16;108100;1279;21989;-57
2023/08/14 01:25:22;;;;;;;7.50;4.50;;;;;;;22.60;45.42;101101.05;108259;1283;23612;-58
2023/08/14 01:27:48;;;;;;;8.30;4.60;;;;;;;22.53;45.57;101099.75;108267;1277;24487;-73
2023/08/14 01:30:13;;;;;;;6.90;4.00;;;;;;;22.45;45.78;101103.20;108117;1283;22000;-73
2023/08/14 01:32:39;;;;;;;9.40;4.70;;;;;;;22.46;45.75;101106.06;108236;1279;21993;-57
2023/08/14 01:35:05;;;;;;;9.60;5.10;;;;;;;22.46;45.73;101105.71;108241;1280;21987;-57
2023/08/14 01:37:44;;;;;;;7.70;5.40;;;;;;;22.44;45.89;101103.80;108258;1283;22207;-73
2023/08/14 01:40:33;;;;;;;6.90;4.30;;;;;;;22.41;45.94;101103.38;108237;1276;21982;-72
2023/08/14 01:43:01;;;;;;;9.10;4.90;;;;;;;22.40;45.89;101106.14;108126;1283;21989;-57
2023/08/14 01:45:27;;;;;;;7.80;4.80;;;;;;;22.44;45.79;101108.27;108049;1273;22002;-73
2023/08/14 01:47:53;;;;;;;9.10;4.60;;;;;;;22.45;45.72;101105.39;108100;1284;21986;-73
2023/08/14 01:50:18;;;;;;;10.50;4.00;;;;;;;22.44;45.77;101104.89;108283;1279;21984;-57
2023/08/14 01:52:44;;;;;;;7.40;4.10;;;;;;;22.42;45.89;101106.73;108115;1284;21995;-57
2023/08/14 01:55:09;;;;;;;7.90;4.60;;;;;;;22.42;45.88;101110.68;108209;1278;21987;-70
2023/08/14 01:57:35;;;;;;;7.20;4.60;;;;;;;22.40;45.82;101108.27;108236;1283;21997;-73
2023/08/14 02:00:01;;;;;;;8.40;5.00;;;;;;;22.37;45.97;101112.15;108222;1273;21981;-73
2023/08/14 02:02:26;;;;;;;8.50;4.90;;;;;;;22.35;46.03;101113.55;108135;1280;21991;-58
2023/08/14 02:04:52;;;;;;;7.90;4.70;;;;;;;22.35;45.96;101117.11;108257;1283;21956;-74
2023/08/14 02:07:18;;;;;;;9.90;4.30;;;;;;;22.34;45.95;101114.11;108297;1276;21991;-57
2023/08/14 02:09:43;;;;;;;7.10;4.50;;;;;;;22.34;45.88;101115.70;108247;1276;21986;-58
2023/08/14 02:12:09;;;;;;;8.10;4.30;;;;;;;22.34;45.96;101117.84;108237;1283;22024;-58
2023/08/14 02:14:34;;;;;;;7.00;4.50;;;;;;;22.35;46.08;101117.84;108242;1280;21984;-58
2023/08/14 02:17:00;;;;;;;8.40;5.20;;;;;;;22.36;46.04;101117.06;108250;1277;21985;-75
2023/08/14 02:19:25;;;;;;;10.60;4.80;;;;;;;22.36;46.10;101116.16;108247;1273;22218;-58
2023/08/14 02:21:51;;;;;;;8.10;5.00;;;;;;;22.36;46.13;101117.05;108290;1274;21998;-74
2023/08/14 02:24:17;;;;;;;9.90;4.90;;;;;;;22.34;46.00;101119.65;108232;1283;22741;-74
2023/08/14 02:26:42;;;;;;;9.80;5.30;;;;;;;22.31;45.95;101119.80;108153;1283;21984;-75
2023/08/14 02:29:08;;;;;;;13.30;5.30;;;;;;;22.27;46.17;101119.64;108170;1277;21992;-58
2023/08/14 02:31:34;;;;;;;18.60;4.40;;;;;;;22.25;46.22;101121.88;108237;1273;21995;-76
2023/08/14 02:34:00;;;;;;;8.50;4.70;;;;;;;22.25;46.20;101122.05;108302;1283;21982;-58
2023/08/14 02:36:26;;;;;;;14.90;5.10;;;;;;;22.26;46.22;101123.45;108189;1279;21998;-58
2023/08/14 02:38:54;;;;;;;14.00;4.90;;;;;;;22.26;46.24;101128.30;108208;1274;21990;-58
2023/08/14 02:41:21;;;;;;;14.90;4.90;;;;;;;22.24;46.11;101125.52;108171;1282;21989;-76
2023/08/14 02:43:46;;;;;;;8.20;5.00;;;;;;;22.23;46.16;101124.51;108213;1279;23040;-58
2023/08/14 02:46:12;;;;;;;6.30;4.50;;;;;;;22.21;46.06;101126.73;108150;1283;21989;-58
2023/08/14 02:48:38;;;;;;;5.00;3.80;;;;;;;22.19;46.12;101126.12;108139;1283;21992;-58
2023/08/14 02:51:03;;;;;;;10.40;4.30;;;;;;;22.18;46.34;101126.02;108147;1276;22000;-75
2023/08/14 02:53:29;;;;;;;5.90;4.00;;;;;;;22.18;46.21;101127.61;108156;1276;23097;-76
2023/08/14 02:55:55;;;;;;;7.60;4.30;;;;;;;22.17;46.17;101130.14;108131;1283;22078;-76
2023/08/14 02:58:21;;;;;;;7.50;4.60;;;;;;;22.14;46.18;101129.41;108147;1279;23630;-76
2023/08/14 03:00:47;;;;;;;11.00;4.80;;;;;;;22.10;46.13;101132.42;108141;1284;21987;-58
2023/08/14 03:03:13;;;;;;;12.20;4.80;;;;;;;22.06;46.33;101132.99;108151;1273;22178;-74
2023/08/14 03:05:39;;;;;;;8.60;4.40;;;;;;;22.04;46.26;101133.84;108150;1278;21985;-58
2023/08/14 03:08:05;;;;;;;7.40;4.10;;;;;;;22.03;46.37;101133.71;108211;1279;21996;-58
2023/08/14 03:10:31;;;;;;;6.50;3.80;;;;;;;22.03;46.44;101134.77;108281;1273;22518;-74
2023/08/14 03:12:56;;;;;;;8.40;4.00;;;;;;;22.05;46.50;101134.14;108328;1279;21987;-58
2023/08/14 03:15:22;;;;;;;8.20;4.30;;;;;;;22.07;46.36;101137.61;108335;1278;21985;-57
2023/08/14 03:17:48;;;;;;;7.60;4.20;;;;;;;22.10;46.42;101136.04;108263;1283;21987;-75
2023/08/14 03:20:13;;;;;;;7.00;4.30;;;;;;;22.11;46.52;101138.47;108198;1279;22455;-74
2023/08/14 03:22:39;;;;;;;7.20;4.30;;;;;;;22.12;46.57;101141.42;108298;1284;21991;-58
2023/08/14 03:25:05;;;;;;;10.50;4.20;;;;;;;22.15;46.62;101142.40;108217;1274;22027;-75
2023/08/14 03:27:31;;;;;;;8.80;3.80;;;;;;;22.17;46.61;101140.71;108355;1283;21985;-58
2023/08/14 03:29:56;;;;;;;10.10;4.70;;;;;;;22.18;46.64;101137.25;108095;1284;21991;-58
2023/08/14 03:32:22;;;;;;;6.90;4.20;;;;;;;22.20;46.64;101136.27;108264;1283;22000;-71
2023/08/14 03:34:48;;;;;;;14.60;5.00;;;;;;;22.23;46.80;101136.84;108230;1276;21989;-73
2023/08/14 03:37:13;;;;;;;9.50;4.40;;;;;;;22.26;46.78;101140.96;108213;1276;21992;-58
2023/08/14 03:39:39;;;;;;;10.20;4.50;;;;;;;22.29;46.88;101140.29;108241;1283;22010;-74
2023/08/14 03:42:04;;;;;;;6.00;3.90;;;;;;;22.34;46.93;101139.52;108207;1279;22452;-57
2023/08/14 03:44:30;;;;;;;8.10;4.40;;;;;;;22.38;46.86;101140.91;108232;1283;21987;-58
2023/08/14 03:46:55;;;;;;;7.40;4.00;;;;;;;22.42;46.83;101140.73;108185;1283;22013;-58
2023/08/14 03:49:21;;;;;;;6.40;3.80;;;;;;;22.47;46.86;101141.04;108198;1276;22452;-74
2023/08/14 03:51:47;;;;;;;8.10;3.70;;;;;;;22.53;46.88;101143.58;108223;1283;23859;-71
2023/08/14 03:54:12;;;;;;;6.80;4.40;;;;;;;22.58;46.90;101144.79;108258;1277;22047;-58
2023/08/14 03:56:38;;;;;;;7.70;4.10;;;;;;;22.63;46.90;101144.38;108207;1273;22051;-57
2023/08/14 03:59:04;;;;;;;16.60;4.30;;;;;;;22.69;46.68;101141.73;108230;1283;21989;-58
2023/08/14 04:01:30;;;;;;;9.50;3.50;;;;;;;22.75;46.83;101142.14;108253;1283;21979;-59
2023/08/14 04:03:56;;;;;;;8.00;4.30;;;;;;;22.80;46.93;101138.69;108160;1283;21982;-59
2023/08/14 04:06:21;;;;;;;5.80;4.00;;;;;;;22.86;46.93;101142.67;108280;1274;22038;-58
2023/08/14 04:08:47;;;;;;;7.70;3.60;;;;;;;22.92;46.81;101144.11;108265;1283;22020;-59
2023/08/14 04:11:12;;;;;;;8.50;4.20;;;;;;;23.01;46.81;101145.79;108268;1276;21983;-73
2023/08/14 04:13:38;;;;;;;5.60;3.30;;;;;;;23.11;46.97;101148.88;108204;1279;21979;-58
2023/08/14 04:16:04;;;;;;;7.80;4.20;;;;;;;23.20;46.93;101150.91;108225;1283;21995;-73
2023/08/14 04:18:29;;;;;;;7.30;3.90;;;;;;;23.29;46.90;101151.33;108300;1277;21986;-57
2023/08/14 04:20:55;;;;;;;6.40;3.70;;;;;;;23.40;46.97;101151.86;108206;1277;22026;-58
2023/08/14 04:23:24;;;;;;;6.40;3.80;;;;;;;23.49;46.99;101150.29;108196;1284;22024;-71
2023/08/14 04:25:51;;;;;;;5.40;3.70;;;;;;;23.57;46.93;101152.70;108272;1274;22024;-57
2023/08/14 04:28:17;;;;;;;5.50;3.40;;;;;;;23.68;46.73;101157.12;108237;1278;21987;-74
2023/08/14 04:30:42;;;;;;;7.80;3.20;;;;;;;23.78;46.59;101156.21;108168;1283;22162;-70
2023/08/14 04:33:08;;;;;;;5.80;3.10;;;;;;;23.90;46.33;101153.02;108212;1282;21995;-58
2023/08/14 04:35:33;;;;;;;6.30;3.70;;;;;;;24.03;46.27;101155.05;108204;1279;21987;-58
2023/08/14 04:37:59;;;;;;;8.50;4.00;;;;;;;24.15;46.38;101154.52;108221;1277;21985;-73
2023/08/14 04:40:25;;;;;;;6.50;3.80;;;;;;;24.28;46.15;101154.33;108260;1277;22699;-76
2023/08/14 04:42:50;;;;;;;7.80;3.20;;;;;;;24.41;45.93;101152.51;108337;1284;21991;-58
2023/08/14 04:45:16;;;;;;;7.40;3.10;;;;;;;24.54;45.82;101151.58;108179;1283;22015;-65
2023/08/14 04:47:41;;;;;;;6.40;3.10;;;;;;;24.67;45.38;101155.14;108206;1279;22004;-58
2023/08/14 04:50:07;;;;;;;4.30;3.00;;;;;;;24.80;45.38;101157.78;108203;1279;21989;-74
2023/08/14 04:52:33;;;;;;;7.40;3.00;;;;;;;24.95;45.13;101158.17;108201;1284;23711;-72
2023/08/14 04:54:58;;;;;;;7.40;3.40;;;;;;;25.09;44.94;101151.75;108129;1276;21995;-59
2023/08/14 04:57:24;;;;;;;7.10;3.30;;;;;;;25.26;45.04;101153.39;108357;1278;21984;-75
2023/08/14 04:59:50;;;;;;;30.60;4.60;;;;;;;25.57;45.12;101155.66;108220;1283;21989;-74
2023/08/14 05:02:15;;;;;;;9.90;3.70;;;;;;;25.92;44.86;101154.16;108215;1276;23640;-58
2023/08/14 05:04:41;;;;;;;6.00;2.80;;;;;;;26.22;44.58;101156.19;108247;1283;21971;-59
2023/08/14 05:07:06;;;;;;;6.20;2.90;;;;;;;26.39;44.20;101155.95;108204;1276;21986;-73
2023/08/14 05:09:32;;;;;;;5.50;3.30;;;;;;;26.56;44.27;101155.04;108154;1284;21996;-70
2023/08/14 05:11:58;;;;;;;7.80;3.40;;;;;;;26.70;43.72;101152.62;108197;1279;21989;-72
2023/08/14 05:14:24;;;;;;;6.40;3.50;;;;;;;26.82;43.59;101155.05;108190;1280;21984;-59
2023/08/14 05:16:49;;;;;;;6.90;3.10;;;;;;;26.97;43.43;101153.67;108254;1273;21992;-59
2023/08/14 05:19:15;;;;;;;5.30;3.50;;;;;;;27.14;43.50;101156.88;108247;1279;21991;-58
2023/08/14 05:21:41;;;;;;;6.50;3.20;;;;;;;27.32;43.30;101159.55;108219;1283;21989;-58
2023/08/14 05:24:07;;;;;;;7.10;3.50;;;;;;;27.56;43.43;101165.77;108183;1284;22103;-73
2023/08/14 05:26:33;;;;;;;5.90;3.30;;;;;;;27.84;43.32;101166.69;108237;1283;23539;-72
2023/08/14 05:28:58;;;;;;;6.10;3.40;;;;;;;28.07;42.79;101165.73;108269;1283;22449;-59
2023/08/14 05:31:24;;;;;;;5.00;3.10;;;;;;;28.23;42.55;101166.52;108228;1280;21995;-59
2023/08/14 05:33:50;;;;;;;5.70;3.30;;;;;;;28.44;42.71;101167.84;108273;1279;23134;-74
2023/08/14 05:36:15;;;;;;;5.80;3.30;;;;;;;28.52;42.91;101164.93;108205;1283;23682;-73
2023/08/14 05:38:43;;;;;;;6.00;3.40;;;;;;;28.76;43.12;101164.91;108241;1281;21989;-60
2023/08/14 05:41:09;;;;;;;9.40;3.90;;;;;;;29.01;42.53;101167.34;108204;1276;22021;-59
2023/08/14 05:43:35;;;;;;;7.40;3.40;;;;;;;29.26;42.16;101171.74;108216;1280;21987;-73
2023/08/14 05:46:00;;;;;;;5.90;3.60;;;;;;;29.63;41.62;101165.08;108431;1283;23609;-57
2023/08/14 05:48:26;;;;;;;7.20;3.40;;;;;;;29.86;41.33;101162.96;108183;1279;21988;-73
2023/08/14 05:50:54;;;;;;;4.90;3.30;;;;;;;30.09;41.43;101162.79;108214;1283;23628;-74
2023/08/14 05:53:20;;;;;;;6.30;3.70;;;;;;;30.35;41.20;101160.45;108223;1277;22114;-57
2023/08/14 05:55:45;;;;;;;5.60;3.40;;;;;;;30.62;40.99;101158.89;108186;1277;21976;-75
2023/08/14 05:58:11;;;;;;;4.50;3.20;;;;;;;30.91;40.65;101155.77;108119;1283;21985;-57
2023/08/14 06:00:37;;;;;;;7.00;3.60;;;;;;;31.18;40.38;101156.70;108168;1280;22062;-72
2023/08/14 06:03:04;;;;;;;5.10;3.30;;;;;;;31.43;40.22;101152.33;108228;1283;23631;-57
2023/08/14 06:05:29;;;;;;;5.00;3.30;;;;;;;31.67;39.94;101149.66;108271;1283;21983;-57
2023/08/14 06:07:55;;;;;;;6.00;3.70;;;;;;;31.91;39.64;101152.08;108267;1273;21994;-73
2023/08/14 06:10:21;;;;;;;3.80;3.10;;;;;;;32.03;39.49;101150.77;108185;1283;21986;-57
2023/08/14 06:12:50;;;;;;;4.90;3.50;;;;;;;32.10;39.62;101151.85;108265;1284;21983;-73
2023/08/14 06:15:16;;;;;;;4.90;3.40;;;;;;;32.47;39.21;101149.34;108247;1283;23725;-74
2023/08/14 06:17:42;;;;;;;4.20;3.20;;;;;;;32.76;38.96;101151.02;108193;1280;22927;-74
2023/08/14 06:20:10;;;;;;;5.70;3.40;;;;;;;33.03;38.81;101153.38;108198;1280;23610;-73
2023/08/14 06:22:43;;;;;;;4.60;3.20;;;;;;;33.29;38.53;101156.17;108255;1280;22182;-58
2023/08/14 06:25:09;;;;;;;4.60;3.10;;;;;;;33.54;38.15;101156.34;108335;1283;21984;-72
2023/08/14 06:27:35;;;;;;;5.50;3.30;;;;;;;33.78;38.04;101156.30;108313;1283;22028;-58
2023/08/14 06:30:01;;;;;;;5.00;3.60;;;;;;;34.02;37.87;101164.17;108187;1273;21986;-58
2023/08/14 06:32:26;;;;;;;4.00;3.20;;;;;;;34.26;37.71;101165.98;108256;1283;21989;-58
2023/08/14 06:34:52;;;;;;;6.40;3.10;;;;;;;34.49;37.33;101164.76;108223;1276;21997;-73
2023/08/14 06:37:17;;;;;;;5.40;2.90;;;;;;;34.71;37.17;101165.45;108221;1283;23644;-58
2023/08/14 06:39:43;;;;;;;4.50;3.30;;;;;;;34.92;36.99;101169.20;108196;1279;21987;-59
2023/08/14 06:42:09;;;;;;;4.40;3.20;;;;;;;35.10;36.87;101170.80;108229;1278;21987;-58
2023/08/14 06:44:34;;;;;;;4.30;3.10;;;;;;;35.41;36.37;101167.84;108193;1277;21989;-58
2023/08/14 06:47:00;;;;;;;4.20;2.90;;;;;;;35.58;35.99;101168.70;108209;1273;21996;-58
2023/08/14 06:49:27;;;;;;;5.80;3.40;;;;;;;35.78;35.97;101167.98;108198;1283;21993;-58
2023/08/14 06:51:52;;;;;;;5.70;3.40;;;;;;;36.02;35.57;101169.33;108206;1273;22408;-72
2023/08/14 06:54:18;;;;;;;5.60;3.00;;;;;;;36.16;35.21;101170.02;108227;1273;22000;-72
2023/08/14 06:56:44;;;;;;;5.70;3.20;;;;;;;36.34;35.17;101169.45;108162;1279;21986;-74
2023/08/14 06:59:09;;;;;;;5.30;2.80;;;;;;;36.57;34.71;101166.75;108226;1277;21986;-73
2023/08/14 07:01:35;;;;;;;5.20;2.80;;;;;;;36.79;34.43;101170.85;108205;1279;21983;-58
2023/08/14 07:04:01;;;;;;;4.20;2.70;;;;;;;37.00;34.25;101168.06;108171;1284;22001;-58
2023/08/14 07:06:27;;;;;;;4.40;2.50;;;;;;;37.21;33.79;101169.46;108173;1280;21988;-74
2023/08/14 07:08:52;;;;;;;4.40;2.90;;;;;;;37.42;33.59;101171.55;108248;1283;21983;-58
2023/08/14 07:11:18;;;;;;;4.70;2.50;;;;;;;37.58;33.17;101178.52;108193;1284;21987;-58
2023/08/14 07:13:44;;;;;;;3.80;2.60;;;;;;;37.74;33.05;101181.23;108187;1280;21985;-73
2023/08/14 07:16:09;;;;;;;3.40;2.40;;;;;;;37.92;32.85;101177.64;108119;1284;21957;-72
2023/08/14 07:18:35;;;;;;;3.00;2.30;;;;;;;38.10;32.03;101174.73;108198;1283;21996;-60
2023/08/14 07:21:00;;;;;;;5.30;2.20;;;;;;;38.17;31.80;101177.70;108244;1274;22026;-58
2023/08/14 07:23:26;;;;;;;3.60;2.60;;;;;;;38.22;31.93;101181.20;108192;1275;22024;-72
2023/08/14 07:25:52;;;;;;;7.50;2.50;;;;;;;38.35;31.80;101184.41;108232;1276;23640;-60
2023/08/14 07:28:17;;;;;;;3.60;2.00;;;;;;;38.53;31.69;101185.61;108171;1283;21983;-60
2023/08/14 07:30:44;;;;;;;3.60;2.20;;;;;;;38.74;31.42;101186.13;108204;1280;21983;-73
2023/08/14 07:33:10;;;;;;;5.80;2.50;;;;;;;38.98;30.81;101188.14;108223;1276;21991;-74
2023/08/14 07:35:37;;;;;;;7.70;2.20;;;;;;;39.16;30.82;101190.45;108278;1283;23743;-60
2023/08/14 07:38:03;;;;;;;4.10;2.00;;;;;;;39.30;30.65;101190.66;108234;1273;21984;-60
2023/08/14 07:40:29;;;;;;;4.70;2.20;;;;;;;39.36;30.17;101193.25;108268;1278;21990;-60
2023/08/14 07:42:54;;;;;;;3.40;2.50;;;;;;;39.40;29.99;101191.75;108206;1274;22081;-60
2023/08/14 07:45:20;;;;;;;4.50;2.70;;;;;;;39.42;29.71;101193.02;108175;1281;22028;-71
2023/08/14 07:47:45;;;;;;;3.90;2.60;;;;;;;39.34;28.43;101191.83;108217;1283;21984;-60
2023/08/14 07:50:11;;;;;;;4.00;2.70;;;;;;;39.23;28.91;101192.69;108232;1280;21987;-59
2023/08/14 07:52:37;;;;;;;3.80;2.40;;;;;;;39.36;29.46;101188.39;108259;1283;21986;-60
2023/08/14 07:55:03;;;;;;;3.10;2.40;;;;;;;39.62;29.49;101184.11;108187;1279;21989;-60
2023/08/14 07:57:29;;;;;;;3.40;2.50;;;;;;;39.87;29.32;101181.13;108194;1276;21982;-59
2023/08/14 07:59:55;;;;;;;3.80;2.30;;;;;;;39.98;28.84;101182.75;108148;1284;21984;-58
2023/08/14 08:02:20;;;;;;;3.40;2.40;;;;;;;39.96;28.40;101182.10;108177;1280;22016;-73
2023/08/14 08:04:46;;;;;;;5.20;2.20;;;;;;;39.80;27.69;101180.84;108091;1284;21981;-73
2023/08/14 08:07:12;;;;;;;4.10;2.50;;;;;;;39.60;27.81;101190.23;108162;1279;22777;-74
2023/08/14 08:09:38;;;;;;;3.20;2.20;;;;;;;39.69;27.98;101184.89;108222;1279;23612;-73
2023/08/14 08:12:04;;;;;;;4.30;2.30;;;;;;;39.91;27.74;101183.55;108137;1279;23846;-59
2023/08/14 08:14:30;;;;;;;7.90;2.20;;;;;;;40.11;27.53;101186.74;108141;1280;21999;-59
2023/08/14 08:16:55;;;;;;;3.40;2.60;;;;;;;40.25;27.60;101184.41;108160;1279;22183;-59
2023/08/14 08:19:21;;;;;;;3.70;2.50;;;;;;;40.34;27.46;101188.95;108171;1284;21988;-73
2023/08/14 08:21:47;;;;;;;3.90;1.90;;;;;;;40.41;27.41;101193.44;108143;1284;23738;-58
2023/08/14 08:24:12;;;;;;;6.00;2.60;;;;;;;40.68;27.30;101192.59;108171;1284;21987;-73
2023/08/14 08:26:38;;;;;;;4.10;2.10;;;;;;;40.96;26.64;101191.80;108191;1279;21990;-73
2023/08/14 08:29:05;;;;;;;4.00;2.20;;;;;;;41.10;26.25;101188.38;108177;1277;21986;-72
2023/08/14 08:31:31;;;;;;;4.70;1.90;;;;;;;41.01;26.03;101185.71;108172;1284;23614;-58
2023/08/14 08:33:57;;;;;;;4.10;2.00;;;;;;;41.05;26.29;101186.47;108176;1279;22002;-73
2023/08/14 08:36:23;;;;;;;4.50;2.90;;;;;;;41.16;26.38;101187.24;108153;1279;21983;-72
2023/08/14 08:38:48;;;;;;;5.40;2.40;;;;;;;41.35;26.20;101189.42;108118;1284;23610;-59
2023/08/14 08:41:18;;;;;;;5.40;2.40;;;;;;;41.57;26.15;101191.59;108183;1279;21990;-74
2023/08/14 08:43:43;;;;;;;5.50;2.50;;;;;;;41.67;25.63;101191.52;108144;1284;23609;-72
2023/08/14 08:46:09;;;;;;;3.00;2.20;;;;;;;41.53;25.21;101189.05;108088;1283;23134;-72
2023/08/14 08:48:41;;;;;;;4.30;2.00;;;;;;;41.36;25.55;101185.81;108201;1284;23448;-73
2023/08/14 08:51:06;;;;;;;4.80;2.30;;;;;;;41.33;24.95;101180.91;108265;1283;21991;-59
2023/08/14 08:53:33;;;;;;;4.10;2.20;;;;;;;41.15;24.75;101179.91;108163;1284;21992;-59
2023/08/14 08:55:58;;;;;;;4.00;2.20;;;;;;;41.16;24.53;101182.86;108219;1279;21987;-74
2023/08/14 08:58:24;;;;;;;3.40;2.10;;;;;;;41.37;25.16;101178.98;108223;1284;22244;-73
2023/08/14 09:00:49;;;;;;;5.40;2.10;;;;;;;41.59;24.10;101175.37;108067;1279;21989;-73
2023/08/14 09:03:15;;;;;;;4.50;2.20;;;;;;;41.63;24.25;101175.02;108122;1284;22024;-73
2023/08/14 09:05:41;;;;;;;4.20;2.30;;;;;;;41.74;24.30;101172.33;108189;1284;21980;-74
2023/08/14 09:08:08;;;;;;;7.20;2.00;;;;;;;41.73;23.83;101174.23;108231;1278;24388;-73
2023/08/14 09:10:34;;;;;;;4.10;2.50;;;;;;;41.68;23.46;101171.93;108103;1276;23744;-72
2023/08/14 09:13:00;;;;;;;4.20;2.10;;;;;;;41.80;23.55;101172.61;108193;1283;21989;-71
2023/08/14 09:15:26;;;;;;;5.20;2.50;;;;;;;41.95;23.89;101175.33;108050;1284;22160;-71
2023/08/14 09:17:53;;;;;;;5.70;2.40;;;;;;;42.14;23.88;101168.16;108171;1274;21982;-59
2023/08/14 09:20:19;;;;;;;3.20;2.40;;;;;;;42.26;24.00;101161.54;108061;1282;21987;-58
2023/08/14 09:22:45;;;;;;;6.00;2.20;;;;;;;42.51;23.39;101160.93;108275;1272;21991;-60
2023/08/14 09:25:11;;;;;;;5.30;2.40;;;;;;;42.59;22.47;101162.98;108229;1280;21991;-59
2023/08/14 09:27:37;;;;;;;4.90;2.30;;;;;;;42.46;23.17;101160.59;108207;1284;21991;-72
2023/08/14 09:30:06;;;;;;;4.90;2.20;;;;;;;42.54;23.57;101159.88;108166;1280;21990;-59
2023/08/14 09:32:32;;;;;;;2.70;1.90;;;;;;;42.93;23.65;101157.08;108246;1276;23599;-59
2023/08/14 09:34:58;;;;;;;2.20;1.80;;;;;;;43.22;23.49;101158.98;108171;1284;22028;-72
2023/08/14 09:37:25;;;;;;;2.60;2.00;;;;;;;43.51;23.55;101163.66;108151;1270;21986;-59
2023/08/14 09:40:08;;;;;;;4.70;2.40;;;;;;;43.80;23.05;101163.42;108188;1280;22024;-73
2023/08/14 09:42:34;;;;;;;6.20;2.10;;;;;;;43.94;22.17;101162.95;108183;1282;21995;-60
2023/08/14 09:45:00;;;;;;;3.20;2.00;;;;;;;43.96;22.56;101159.02;108203;1280;21987;-72
2023/08/14 09:47:26;;;;;;;4.00;2.20;;;;;;;44.10;22.60;101155.70;108122;1279;21986;-60
2023/08/14 09:49:54;;;;;;;2.30;1.90;;;;;;;44.25;22.31;101159.43;108166;1284;23156;-60
2023/08/14 09:52:20;;;;;;;2.90;1.80;;;;;;;44.28;22.05;101155.88;108217;1276;22159;-60
2023/08/14 09:54:45;;;;;;;4.80;2.10;;;;;;;44.37;22.28;101153.28;108174;1277;21985;-60
2023/08/14 09:57:11;;;;;;;2.90;1.60;;;;;;;44.56;22.16;101151.00;108066;1284;21986;-72
2023/08/14 09:59:37;;;;;;;2.30;1.70;;;;;;;44.75;21.91;101151.20;108138;1277;21986;-60
2023/08/14 10:02:03;;;;;;;2.90;1.90;;;;;;;44.90;21.68;101147.02;108080;1283;22016;-72
2023/08/14 10:04:29;;;;;;;7.90;2.20;;;;;;;44.90;20.95;101144.55;108123;1284;21984;-60
2023/08/14 10:06:54;;;;;;;4.30;1.90;;;;;;;44.78;20.83;101142.48;108182;1282;22217;-71
2023/08/14 10:09:22;;;;;;;5.00;2.20;;;;;;;44.53;20.94;101141.89;108067;1280;22581;-60
2023/08/14 10:11:48;;;;;;;3.50;2.30;;;;;;;44.19;21.05;101149.31;108264;1280;22024;-73
2023/08/14 10:14:13;;;;;;;5.00;1.90;;;;;;;44.04;21.47;101147.95;108098;1279;24347;-60
2023/08/14 10:16:39;;;;;;;3.60;1.90;;;;;;;44.19;21.56;101143.65;108084;1279;21987;-72
2023/08/14 10:19:07;;;;;;;4.00;1.80;;;;;;;44.43;21.14;101139.23;108124;1279;22044;-60
2023/08/14 10:21:34;;;;;;;2.50;1.70;;;;;;;44.62;20.91;101141.21;108187;1279;21997;-73
2023/08/14 10:24:02;;;;;;;2.90;1.70;;;;;;;44.85;20.74;101140.50;108122;1282;23301;-60
2023/08/14 10:26:28;;;;;;;2.50;1.90;;;;;;;44.85;20.39;101143.69;108161;1283;22453;-72
2023/08/14 10:28:56;;;;;;;2.30;1.80;;;;;;;44.68;19.56;101143.93;108294;1283;22026;-75
2023/08/14 10:31:22;;;;;;;2.40;1.80;;;;;;;44.18;19.94;101141.66;108217;1284;24309;-73
2023/08/14 10:33:47;;;;;;;2.70;2.00;;;;;;;44.08;20.77;101141.95;108207;1283;23711;-73
2023/08/14 10:36:19;;;;;;;2.80;1.80;;;;;;;44.37;20.88;101141.20;108099;1281;21989;-68
2023/08/14 10:38:49;;;;;;;4.30;2.10;;;;;;;44.64;19.93;101137.48;108090;1279;21990;-60
2023/08/14 10:41:16;;;;;;;3.30;2.10;;;;;;;44.62;19.92;101138.36;108195;1283;21992;-60
2023/08/14 10:43:42;;;;;;;2.70;1.80;;;;;;;44.71;20.27;101136.38;108262;1278;21986;-61
2023/08/14 10:46:14;;;;;;;2.90;1.90;;;;;;;45.06;20.46;101136.88;108211;1284;21987;-64
2023/08/14 10:48:41;;;;;;;5.90;2.00;;;;;;;45.34;20.26;101137.73;108236;1281;22021;-61
2023/08/14 10:51:08;;;;;;;3.60;1.70;;;;;;;45.47;20.11;101134.73;108295;1284;21994;-72
2023/08/14 10:53:34;;;;;;;3.30;2.30;;;;;;;45.63;19.97;101130.86;108251;1274;22015;-74
2023/08/14 10:56:00;;;;;;;5.50;2.10;;;;;;;45.78;19.90;101131.56;108157;1284;21985;-73
2023/08/14 10:58:31;;;;;;;3.00;1.60;;;;;;;45.78;19.54;101127.50;108245;1274;21996;-72
2023/08/14 11:01:00;;;;;;;5.00;2.30;;;;;;;45.58;18.83;101129.05;108250;1284;21988;-75
2023/08/14 11:03:26;;;;;;;8.60;1.80;;;;;;;45.45;19.36;101126.57;108306;1283;23740;-60
2023/08/14 11:05:52;;;;;;;4.50;1.90;;;;;;;45.58;19.38;101119.46;108219;1280;22177;-61
2023/08/14 11:08:18;;;;;;;3.20;2.00;;;;;;;45.61;19.05;101121.44;108216;1284;21961;-72
2023/08/14 11:10:44;;;;;;;4.90;1.70;;;;;;;45.70;19.45;101118.66;108259;1284;21985;-59
2023/08/14 11:13:10;;;;;;;3.90;2.10;;;;;;;45.98;19.31;101117.13;108232;1284;21976;-61